createdAt,value
2017-09-25T00:00:26.897Z,"    0"
2017-09-25T00:05:22.767Z,"    0"
2017-09-25T00:10:18.624Z,"    0"
2017-09-25T00:15:14.657Z,"    0"
2017-09-25T00:20:10.773Z,"    0"
2017-09-25T00:25:07.462Z,"    0"
2017-09-25T00:30:03.326Z,"    0"
2017-09-25T00:34:59.602Z,"    0"
2017-09-25T00:39:55.198Z,"    0"
2017-09-25T00:44:51.186Z,"    0"
2017-09-25T00:49:47.026Z,"    0"
2017-09-25T00:54:43.026Z,"    0"
2017-09-25T00:59:40.044Z,"    0"
2017-09-25T01:04:35.642Z,"    0"
2017-09-25T01:09:31.580Z,"    0"
2017-09-25T01:14:28.391Z,"    0"
2017-09-25T01:19:24.211Z,"    0"
2017-09-25T01:24:20.526Z,"    0"
2017-09-25T01:29:17.721Z,"    0"
2017-09-25T01:34:14.366Z,"    0"
2017-09-25T01:39:10.974Z,"    0"
2017-09-25T01:44:06.593Z,"    0"
2017-09-25T01:49:02.184Z,"    0"
2017-09-25T01:53:59.016Z,"    0"
2017-09-25T01:58:54.764Z,"    0"
2017-09-25T02:03:50.588Z,"    0"
2017-09-25T02:08:46.253Z,"    0"
2017-09-25T02:13:43.118Z,"    0"
2017-09-25T02:18:38.437Z,"    0"
2017-09-25T02:23:34.258Z,"    0"
2017-09-25T02:28:30.013Z,"    0"
2017-09-25T02:33:25.783Z,"    0"
2017-09-25T02:38:21.485Z,"    0"
2017-09-25T02:43:17.429Z,"    0"
2017-09-25T02:48:13.176Z,"    0"
2017-09-25T02:53:08.940Z,"    0"
2017-09-25T02:58:06.486Z,"    0"
2017-09-25T03:03:01.998Z,"    0"
2017-09-25T03:07:57.880Z,"    0"
2017-09-25T03:12:53.369Z,"    0"
2017-09-25T03:17:49.514Z,"    0"
2017-09-25T03:22:45.636Z,"    0"
2017-09-25T03:27:41.604Z,"    0"
2017-09-25T03:32:38.157Z,"    0"
2017-09-25T03:37:35.495Z,"    0"
2017-09-25T03:42:31.211Z,"    0"
2017-09-25T03:47:27.075Z,"    0"
2017-09-25T03:52:22.821Z,"    0"
2017-09-25T03:57:18.815Z,"    0"
2017-09-25T04:02:14.328Z,"    0"
2017-09-25T04:07:10.498Z,"    0"
2017-09-25T04:12:06.502Z,"    0"
2017-09-25T04:17:02.403Z,"    0"
2017-09-25T04:21:59.194Z,"    0"
2017-09-25T04:26:54.877Z,"    0"
2017-09-25T04:31:50.522Z,"    0"
2017-09-25T04:36:46.861Z,"    0"
2017-09-25T04:41:42.592Z,"    0"
2017-09-25T04:46:38.363Z,"    0"
2017-09-25T04:51:34.608Z,"    0"
2017-09-25T04:56:30.545Z,"    4"
2017-09-25T05:01:27.145Z,"    4"
2017-09-25T05:06:22.871Z,"    8"
2017-09-25T05:11:18.731Z,"   20"
2017-09-25T05:16:14.613Z,"   40"
2017-09-25T05:21:10.109Z,"   60"
2017-09-25T05:26:06.120Z,"   88"
2017-09-25T05:31:03.377Z,"  132"
2017-09-25T05:35:58.766Z,"  172"
2017-09-25T05:40:55.095Z,"  248"
2017-09-25T05:45:51.960Z,"  340"
2017-09-25T05:50:48.562Z,"  372"
2017-09-25T05:55:44.481Z,"  472"
2017-09-25T06:00:40.331Z,"  636"
2017-09-25T06:05:37.320Z,"  848"
2017-09-25T06:10:32.970Z," 1152"
2017-09-25T06:15:28.818Z," 1548"
2017-09-25T06:20:24.749Z," 1892"
2017-09-25T06:25:20.590Z," 3096"
2017-09-25T06:30:16.678Z," 3784"
2017-09-25T06:35:13.067Z," 3792"
2017-09-25T06:40:08.862Z," 3732"
2017-09-25T06:45:04.996Z," 4120"
2017-09-25T06:50:00.945Z," 3860"
2017-09-25T06:54:57.711Z," 3968"
2017-09-25T06:59:53.668Z," 4324"
2017-09-25T07:04:50.438Z," 4408"
2017-09-25T07:09:47.044Z," 4960"
2017-09-25T07:14:42.637Z," 6376"
2017-09-25T07:19:39.171Z," 6096"
2017-09-25T07:24:34.868Z," 5660"
2017-09-25T07:29:30.743Z," 5120"
2017-09-25T07:34:27.111Z," 6572"
2017-09-25T07:39:23.271Z," 4280"
2017-09-25T07:44:19.033Z," 8296"
2017-09-25T07:49:15.277Z," 6720"
2017-09-25T07:54:10.950Z," 6124"
2017-09-25T07:59:07.001Z," 6152"
2017-09-25T08:04:02.795Z," 7076"
2017-09-25T08:08:58.495Z," 6592"
2017-09-25T08:13:55.052Z," 6856"
2017-09-25T08:18:51.024Z," 6272"
2017-09-25T08:23:47.220Z," 9560"
2017-09-25T08:28:44.230Z," 9480"
2017-09-25T08:33:40.331Z," 9280"
2017-09-25T08:38:36.216Z,10100
2017-09-25T08:43:32.427Z," 7832"
2017-09-25T08:48:28.125Z,11324
2017-09-25T08:53:25.296Z,11328
2017-09-25T08:58:21.167Z,11008
2017-09-25T09:03:17.473Z,10732
2017-09-25T09:08:14.622Z,10240
2017-09-25T09:13:10.272Z,10684
2017-09-25T09:18:07.221Z," 9608"
2017-09-25T09:23:03.148Z,10208
2017-09-25T09:27:59.078Z," 9372"
2017-09-25T09:32:55.947Z," 8884"
2017-09-25T09:37:51.591Z,11608
2017-09-25T09:42:47.820Z," 9312"
2017-09-25T09:47:43.662Z," 9912"
2017-09-25T09:52:39.563Z,11292
2017-09-25T09:57:35.776Z,10684
2017-09-25T10:02:31.663Z,10612
2017-09-25T10:07:27.354Z,12732
2017-09-25T10:12:24.470Z,14388
2017-09-25T10:17:20.737Z,13644
2017-09-25T10:22:16.890Z,13476
2017-09-25T10:27:13.449Z,12764
2017-09-25T10:32:09.665Z,11036
2017-09-25T10:37:06.159Z,10132
2017-09-25T10:42:01.467Z,11428
2017-09-25T10:46:57.174Z,10320
2017-09-25T10:51:53.245Z,11172
2017-09-25T10:56:49.105Z,10344
2017-09-25T11:01:45.155Z," 8064"
2017-09-25T11:06:40.926Z,10112
2017-09-25T11:11:37.938Z,10364
2017-09-25T11:16:34.489Z," 9668"
2017-09-25T11:21:31.516Z," 8560"
2017-09-25T11:26:26.924Z," 7980"
2017-09-25T11:31:23.863Z," 7684"
2017-09-25T11:36:19.432Z," 7532"
2017-09-25T11:41:15.249Z," 8256"
2017-09-25T11:46:11.214Z," 8700"
2017-09-25T11:51:06.977Z," 6744"
2017-09-25T11:56:04.654Z," 6460"
2017-09-25T12:01:00.178Z," 7048"
2017-09-25T12:05:56.367Z," 7612"
2017-09-25T12:10:52.197Z," 7512"
2017-09-25T12:15:48.985Z," 7440"
2017-09-25T12:20:44.941Z," 7192"
2017-09-25T12:25:41.743Z," 6900"
2017-09-25T12:30:37.333Z," 6804"
2017-09-25T12:35:33.361Z," 6832"
2017-09-25T12:40:29.305Z," 7040"
2017-09-25T12:45:26.462Z," 8384"
2017-09-25T12:50:23.164Z," 9356"
2017-09-25T12:55:18.951Z," 8328"
2017-09-25T13:00:15.720Z," 7276"
2017-09-25T13:05:11.090Z," 7024"
2017-09-25T13:10:06.934Z," 6412"
2017-09-25T13:15:02.838Z," 6912"
2017-09-25T13:19:59.636Z," 6752"
2017-09-25T13:24:56.302Z," 7132"
2017-09-25T13:29:51.792Z," 7428"
2017-09-25T13:34:47.857Z," 7216"
2017-09-25T13:39:43.805Z," 7476"
2017-09-25T13:44:40.769Z," 6708"
2017-09-25T13:49:36.256Z," 6844"
2017-09-25T13:54:32.128Z," 7040"
2017-09-25T14:04:28.466Z," 5840"
2017-09-25T14:09:24.378Z," 5620"
2017-09-25T14:14:20.069Z," 4936"
2017-09-25T14:19:16.001Z," 5064"
2017-09-25T14:24:11.796Z," 4708"
2017-09-25T14:29:07.720Z," 4796"
2017-09-25T14:34:03.479Z," 4624"
2017-09-25T14:39:00.495Z," 4040"
2017-09-25T14:43:55.969Z," 3236"
2017-09-25T14:48:51.840Z," 2852"
2017-09-25T14:53:47.497Z," 2276"
2017-09-25T14:58:43.322Z," 2140"
2017-09-25T15:03:40.305Z," 1840"
2017-09-25T15:08:35.815Z," 1552"
2017-09-25T15:13:31.442Z," 1620"
2017-09-25T15:18:27.661Z," 1760"
2017-09-25T15:23:24.458Z," 2120"
2017-09-25T15:28:20.135Z," 2492"
2017-09-25T15:33:16.099Z," 2148"
2017-09-25T15:38:11.837Z," 1956"
2017-09-25T15:43:07.617Z," 1856"
2017-09-25T15:48:03.493Z," 2116"
2017-09-25T15:52:59.503Z," 2180"
2017-09-25T15:57:57.323Z," 2260"
2017-09-25T16:02:53.801Z," 2144"
2017-09-25T16:07:49.491Z," 1864"
2017-09-25T16:12:45.405Z," 1980"
2017-09-25T16:17:42.234Z," 1932"
2017-09-25T16:22:39.084Z," 1600"
2017-09-25T16:27:35.738Z," 1352"
2017-09-25T16:32:31.329Z," 1220"
2017-09-25T16:37:26.957Z," 1168"
2017-09-25T16:42:24.019Z," 1032"
2017-09-25T16:47:21.181Z,"  872"
2017-09-25T16:52:16.877Z,"  740"
2017-09-25T16:57:12.420Z,"  596"
2017-09-25T17:02:08.361Z,"  468"
2017-09-25T17:07:04.200Z,"  336"
2017-09-25T17:12:01.387Z,"  244"
2017-09-25T17:16:56.814Z,"  152"
2017-09-25T17:21:53.582Z,"   80"
2017-09-25T17:26:49.581Z,"   40"
2017-09-25T17:31:45.411Z,"   20"
2017-09-25T17:36:42.232Z,"    8"
2017-09-25T17:41:37.907Z,"    4"
2017-09-25T17:46:33.766Z,"    0"
2017-09-25T17:51:30.764Z,"    0"
2017-09-25T17:56:26.340Z,"    0"
2017-09-25T18:01:22.208Z,"    0"
2017-09-25T18:06:17.821Z,"    0"
2017-09-25T18:11:14.602Z,"    0"
2017-09-25T18:16:09.775Z,"    0"
2017-09-25T18:21:05.342Z,"    0"
2017-09-25T18:26:01.412Z,"    0"
2017-09-25T18:30:58.199Z,"    0"
2017-09-25T18:35:53.743Z,"    0"
2017-09-25T18:40:49.754Z,"    0"
2017-09-25T18:45:45.636Z,"    0"
2017-09-25T18:50:41.699Z,"    0"
2017-09-25T18:55:37.463Z,"    0"
2017-09-25T19:00:33.014Z,"    0"
2017-09-25T19:05:28.953Z,"    0"
2017-09-25T19:10:25.796Z,"    0"
2017-09-25T19:15:22.389Z,"    0"
2017-09-25T19:20:17.798Z,"    0"
2017-09-25T19:25:14.438Z,"    0"
2017-09-25T19:30:09.970Z,"    0"
2017-09-25T19:35:06.906Z,"    0"
2017-09-25T19:40:02.369Z,"    0"
2017-09-25T19:44:58.298Z,"    0"
2017-09-25T19:49:53.946Z,"    0"
2017-09-25T19:54:50.711Z,"    0"
2017-09-25T19:59:47.646Z,"    0"
2017-09-25T20:04:44.229Z,"    0"
2017-09-25T20:09:40.700Z,"    0"
2017-09-25T20:14:35.977Z,"    0"
2017-09-25T20:19:32.673Z,"    0"
2017-09-25T20:24:30.104Z,"    0"
2017-09-25T20:29:25.914Z,"    0"
2017-09-25T20:34:21.523Z,"    0"
2017-09-25T20:39:18.261Z,"    0"
2017-09-25T20:44:14.019Z,"    0"
2017-09-25T20:49:10.966Z,"    0"
2017-09-25T20:54:07.726Z,"    0"
2017-09-25T20:59:03.074Z,"    0"
2017-09-25T21:03:59.299Z,"    0"
2017-09-25T21:08:55.220Z,"    0"
2017-09-25T21:13:51.102Z,"    0"
2017-09-25T21:18:47.234Z,"    0"
2017-09-25T21:23:44.036Z,"    0"
2017-09-25T21:28:39.194Z,"    0"
2017-09-25T21:33:34.988Z,"    0"
2017-09-25T21:38:31.642Z,"    0"
2017-09-25T21:43:28.110Z,"    0"
2017-09-25T21:48:23.581Z,"    0"
2017-09-25T21:53:19.273Z,"    0"
2017-09-25T21:58:15.385Z,"    0"
2017-09-25T22:03:11.071Z,"    0"
2017-09-25T22:08:07.773Z,"    0"
2017-09-25T22:13:03.475Z,"    0"
2017-09-25T22:17:59.584Z,"    0"
2017-09-25T22:22:55.269Z,"    0"
2017-09-25T22:27:51.166Z,"    0"
2017-09-25T22:32:48.054Z,"    0"
2017-09-25T22:37:43.393Z,"    0"
2017-09-25T22:42:39.205Z,"    0"
2017-09-25T22:47:34.806Z,"    0"
2017-09-25T22:52:30.875Z,"    0"
2017-09-25T22:57:27.404Z,"    0"
2017-09-25T23:02:22.865Z,"    0"
2017-09-25T23:07:18.662Z,"    0"
2017-09-25T23:12:14.440Z,"    0"
2017-09-25T23:17:10.092Z,"    0"
2017-09-25T23:22:05.799Z,"    0"
2017-09-25T23:27:01.792Z,"    0"
2017-09-25T23:31:57.920Z,"    0"
2017-09-25T23:36:54.676Z,"    0"
2017-09-25T23:41:51.140Z,"    0"
2017-09-25T23:46:46.693Z,"    0"
2017-09-25T23:51:43.456Z,"    0"
2017-09-25T23:56:38.944Z,"    0"
